Terminal Aerodrome Forecast
Issued by NWS

Home | Current Version | Previous Version | Text Only | Print | Product List | Glossary On
Versions: 1 2 3 4 5 6 7 8 9 10 11 12 13
000
FTUS45 KRIW 182300
TAFLND
TAF
KLND 182339Z 1900/1924 26022G34KT P6SM SCT100 BKN150
     FM190200 28011KT P6SM SCT120 BKN250
     FM190500 VRB05KT P6SM SKC
     FM192000 26010KT P6SM FEW060=

USA.gov is the U.S. government's official web portal to all federal, state and local government web resources and services.